createdAt,value
2018-12-20T00:01:43.400Z,19.75
2018-12-20T00:04:12.832Z,16.87
2018-12-20T00:06:42.274Z,17.87
2018-12-20T00:09:12.045Z,19.60
2018-12-20T00:11:41.985Z,17.17
2018-12-20T00:14:12.290Z,17.90
2018-12-20T00:16:44.472Z,17.95
2018-12-20T00:19:15.284Z,19.73
2018-12-20T00:21:44.788Z,17.30
2018-12-20T00:24:14.171Z,19.00
2018-12-20T00:26:43.595Z,18.15
2018-12-20T00:29:13.371Z,18.25
2018-12-20T00:31:42.953Z,18.30
2018-12-20T00:34:12.412Z,20.15
2018-12-20T00:36:41.839Z,20.48
2018-12-20T00:39:11.259Z,22.13
2018-12-20T00:41:40.711Z,18.87
2018-12-20T00:44:10.425Z,20.10
2018-12-20T00:46:39.925Z,19.57
2018-12-20T00:49:09.445Z,18.07
2018-12-20T00:51:38.773Z,17.62
2018-12-20T00:54:08.136Z,20.72
2018-12-20T00:56:38.700Z,20.45
2018-12-20T00:59:10.577Z,20.45
2018-12-20T01:01:42.167Z,19.20
2018-12-20T01:04:11.651Z,19.25
2018-12-20T01:06:42.223Z,19.40
2018-12-20T01:09:14.167Z,19.65
2018-12-20T01:11:43.901Z,19.57
2018-12-20T01:14:13.360Z,19.23
2018-12-20T01:16:42.943Z,20.32
2018-12-20T01:19:12.916Z,18.70
2018-12-20T01:21:42.242Z,18.23
2018-12-20T01:24:13.765Z,19.05
2018-12-20T01:26:46.991Z,20.05
2018-12-20T01:29:21.907Z,19.52
2018-12-20T01:31:55.430Z,19.20
2018-12-20T01:34:25.776Z,20.05
2018-12-20T01:36:55.124Z,19.70
2018-12-20T01:39:24.635Z,20.60
2018-12-20T01:41:54.003Z,18.90
2018-12-20T01:44:23.505Z,20.92
2018-12-20T01:46:52.788Z,18.45
2018-12-20T01:49:22.340Z,19.40
2018-12-20T01:51:54.217Z,19.42
2018-12-20T01:54:23.778Z,18.55
2018-12-20T01:56:53.208Z,18.50
2018-12-20T01:59:22.656Z,18.42
2018-12-20T02:01:52.522Z,20.37
2018-12-20T02:04:22.139Z,20.92
2018-12-20T02:06:51.753Z,19.98
2018-12-20T02:09:21.129Z,21.10
2018-12-20T02:11:50.496Z,20.05
2018-12-20T02:14:19.775Z,19.73
2018-12-20T02:16:49.410Z,19.82
2018-12-20T02:19:19.354Z,20.02
2018-12-20T02:21:53.157Z,17.67
2018-12-20T02:24:24.583Z,19.48
2018-12-20T02:26:54.018Z,19.30
2018-12-20T02:29:24.472Z,20.92
2018-12-20T02:31:56.918Z,20.85
2018-12-20T02:34:26.841Z,20.32
2018-12-20T02:36:56.694Z,20.20
2018-12-20T02:39:26.315Z,19.55
2018-12-20T02:41:56.203Z,19.23
2018-12-20T02:44:25.899Z,20.45
2018-12-20T02:46:55.282Z,19.17
2018-12-20T02:49:24.508Z,19.48
2018-12-20T02:51:53.933Z,18.52
2018-12-20T02:54:23.535Z,20.43
2018-12-20T02:56:53.046Z,19.25
2018-12-20T02:59:24.231Z,21.70
2018-12-20T03:01:53.679Z,20.97
2018-12-20T03:04:22.975Z,21.30
2018-12-20T03:06:52.785Z,21.20
2018-12-20T03:09:22.325Z,19.87
2018-12-20T03:11:51.734Z,20.50
2018-12-20T03:14:21.351Z,21.27
2018-12-20T03:16:50.802Z,21.62
2018-12-20T03:19:20.197Z,21.10
2018-12-20T03:21:49.824Z,19.85
2018-12-20T03:24:19.225Z,22.13
2018-12-20T03:26:48.507Z,20.30
2018-12-20T03:29:17.997Z,21.55
2018-12-20T03:31:47.334Z,19.52
2018-12-20T03:34:17.138Z,19.80
2018-12-20T03:36:46.846Z,21.50
2018-12-20T03:39:16.466Z,20.82
2018-12-20T03:41:45.794Z,20.15
2018-12-20T03:44:15.140Z,19.80
2018-12-20T03:46:44.802Z,22.13
2018-12-20T03:49:14.189Z,19.90
2018-12-20T03:51:43.534Z,21.45
2018-12-20T03:54:12.760Z,21.70
2018-12-20T03:56:42.080Z,21.68
2018-12-20T03:59:11.571Z,21.30
2018-12-20T04:01:40.887Z,21.15
2018-12-20T04:04:10.385Z,22.70
2018-12-20T04:06:40.104Z,20.88
2018-12-20T04:09:09.533Z,21.80
2018-12-20T04:11:38.947Z,21.70
2018-12-20T04:14:08.451Z,21.82
2018-12-20T04:16:38.041Z,22.60
2018-12-20T04:19:07.804Z,22.13
2018-12-20T04:21:37.180Z,23.52
2018-12-20T04:24:06.513Z,20.80
2018-12-20T04:26:36.370Z,20.60
2018-12-20T04:29:06.193Z,21.93
2018-12-20T04:31:35.479Z,22.70
2018-12-20T04:34:05.074Z,21.82
2018-12-20T04:36:34.615Z,21.07
2018-12-20T04:39:06.720Z,23.42
2018-12-20T04:41:36.531Z,20.97
2018-12-20T04:44:06.124Z,23.67
2018-12-20T04:46:35.698Z,22.02
2018-12-20T04:49:05.390Z,22.82
2018-12-20T04:51:34.842Z,24.72
2018-12-20T04:54:04.156Z,20.60
2018-12-20T04:56:33.587Z,21.12
2018-12-20T04:59:03.097Z,22.30
2018-12-20T05:01:32.494Z,21.52
2018-12-20T05:04:02.048Z,20.70
2018-12-20T05:06:31.403Z,22.00
2018-12-20T05:09:00.847Z,21.42
2018-12-20T05:11:30.585Z,23.47
2018-12-20T05:14:00.205Z,23.67
2018-12-20T05:16:29.790Z,22.13
2018-12-20T05:18:59.240Z,24.65
2018-12-20T05:21:29.383Z,23.00
2018-12-20T05:23:58.891Z,23.02
2018-12-20T05:26:28.483Z,24.37
2018-12-20T05:28:57.928Z,23.40
2018-12-20T05:31:27.195Z,22.82
2018-12-20T05:33:56.851Z,23.52
2018-12-20T05:36:26.326Z,23.85
2018-12-20T05:38:55.843Z,21.00
2018-12-20T05:41:25.295Z,21.95
2018-12-20T05:43:54.904Z,23.02
2018-12-20T05:46:24.996Z,23.27
2018-12-20T05:48:54.513Z,22.82
2018-12-20T05:51:24.007Z,22.87
2018-12-20T05:53:53.421Z,24.77
2018-12-20T05:56:22.809Z,22.67
2018-12-20T05:58:52.310Z,23.02
2018-12-20T06:01:21.587Z,25.32
2018-12-20T06:03:51.168Z,27.85
2018-12-20T06:06:20.573Z,22.42
2018-12-20T06:08:49.944Z,25.20
2018-12-20T06:11:19.861Z,24.82
2018-12-20T06:13:49.426Z,22.00
2018-12-20T06:16:18.670Z,23.02
2018-12-20T06:18:48.032Z,23.20
2018-12-20T06:21:17.338Z,23.92
2018-12-20T06:23:46.623Z,24.15
2018-12-20T06:26:16.906Z,22.87
2018-12-20T06:28:46.296Z,24.23
2018-12-20T06:31:15.771Z,25.72
2018-12-20T06:33:45.603Z,25.30
2018-12-20T06:36:14.882Z,24.27
2018-12-20T06:38:44.214Z,27.17
2018-12-20T06:41:14.916Z,25.62
2018-12-20T06:43:44.223Z,25.88
2018-12-20T06:46:20.864Z,23.67
2018-12-20T06:48:45.411Z,23.07
2018-12-20T06:51:14.883Z,23.38
2018-12-20T06:53:44.135Z,22.77
2018-12-20T06:56:13.842Z,23.35
2018-12-20T06:58:43.241Z,24.20
2018-12-20T07:01:12.647Z,23.55
2018-12-20T07:03:42.048Z,23.67
2018-12-20T07:06:11.631Z,24.77
2018-12-20T07:08:41.352Z,24.25
2018-12-20T07:11:10.766Z,25.77
2018-12-20T07:13:40.304Z,24.52
2018-12-20T07:16:09.665Z,25.77
2018-12-20T07:18:39.400Z,24.65
2018-12-20T07:21:08.760Z,25.88
2018-12-20T07:23:38.068Z,27.93
2018-12-20T07:26:07.548Z,26.20
2018-12-20T07:28:36.833Z,24.15
2018-12-20T07:31:06.107Z,25.32
2018-12-20T07:33:35.512Z,25.17
2018-12-20T07:36:04.812Z,25.85
2018-12-20T07:38:34.257Z,25.57
2018-12-20T07:41:03.770Z,26.17
2018-12-20T07:43:34.158Z,24.50
2018-12-20T07:46:03.553Z,26.50
2018-12-20T07:48:33.591Z,25.97
2018-12-20T07:51:03.647Z,25.88
2018-12-20T07:53:33.147Z,27.02
2018-12-20T07:56:03.419Z,25.70
2018-12-20T07:58:32.823Z,24.55
2018-12-20T08:01:02.584Z,26.42
2018-12-20T08:03:35.888Z,26.45
2018-12-20T08:06:05.423Z,26.85
2018-12-20T08:08:35.026Z,26.35
2018-12-20T08:11:04.808Z,22.70
2018-12-20T08:13:34.114Z,26.45
2018-12-20T08:16:04.723Z,28.83
2018-12-20T08:18:34.083Z,26.57
2018-12-20T08:21:03.536Z,25.12
2018-12-20T08:23:33.222Z,24.25
2018-12-20T08:26:02.769Z,26.82
2018-12-20T08:28:32.312Z,26.37
2018-12-20T08:31:03.046Z,25.20
2018-12-20T08:33:32.394Z,24.92
2018-12-20T08:36:01.685Z,25.77
2018-12-20T08:38:31.024Z,26.48
2018-12-20T08:41:00.514Z,26.25
2018-12-20T08:43:30.129Z,28.77
2018-12-20T08:45:59.625Z,26.25
2018-12-20T08:48:28.939Z,25.82
2018-12-20T08:50:59.238Z,25.70
2018-12-20T08:53:28.838Z,27.58
2018-12-20T08:55:58.938Z,25.08
2018-12-20T08:58:29.386Z,24.92
2018-12-20T09:00:58.748Z,28.50
2018-12-20T09:03:29.573Z,26.52
2018-12-20T09:05:59.050Z,25.30
2018-12-20T09:08:28.353Z,27.25
2018-12-20T09:10:58.381Z,26.45
2018-12-20T09:13:27.691Z,24.90
2018-12-20T09:15:57.175Z,26.27
2018-12-20T09:18:27.208Z,26.02
2018-12-20T09:20:56.546Z,24.92
2018-12-20T09:23:26.279Z,24.20
2018-12-20T09:25:56.148Z,23.67
2018-12-20T09:28:25.830Z,24.87
2018-12-20T09:30:55.466Z,26.42
2018-12-20T09:33:24.838Z,25.57
2018-12-20T09:35:54.277Z,24.80
2018-12-20T09:38:23.605Z,25.10
2018-12-20T09:40:53.159Z,23.80
2018-12-20T09:43:22.512Z,23.67
2018-12-20T09:45:51.825Z,22.37
2018-12-20T09:48:22.872Z,25.25
2018-12-20T09:50:52.179Z,25.05
2018-12-20T09:53:21.837Z,29.00
2018-12-20T09:55:51.247Z,25.32
2018-12-20T09:58:20.812Z,26.62
2018-12-20T10:00:50.217Z,27.10
2018-12-20T10:03:19.791Z,26.45
2018-12-20T10:05:49.157Z,27.02
2018-12-20T10:08:18.592Z,28.40
2018-12-20T10:10:47.998Z,26.70
2018-12-20T10:13:17.540Z,28.55
2018-12-20T10:15:48.977Z,27.93
2018-12-20T10:18:19.525Z,28.65
2018-12-20T10:20:48.971Z,28.20
2018-12-20T10:23:18.244Z,28.40
2018-12-20T10:25:47.852Z,29.35
2018-12-20T10:28:17.332Z,28.00
2018-12-20T10:30:46.639Z,28.60
2018-12-20T10:33:17.715Z,29.82
2018-12-20T10:35:47.385Z,30.48
2018-12-20T10:38:16.913Z,28.60
2018-12-20T10:40:47.206Z,30.68
2018-12-20T10:43:18.658Z,28.27
2018-12-20T10:45:48.389Z,31.52
2018-12-20T10:48:18.952Z,29.87
2018-12-20T10:50:48.259Z,29.32
2018-12-20T10:53:17.955Z,28.40
2018-12-20T10:55:48.520Z,28.52
2018-12-20T10:58:17.966Z,30.50
2018-12-20T11:00:53.160Z,28.92
2018-12-20T11:03:30.083Z,28.83
2018-12-20T11:06:04.343Z,31.93
2018-12-20T11:08:35.666Z,30.68
2018-12-20T11:11:09.998Z,32.80
2018-12-20T11:13:39.370Z,30.08
2018-12-20T11:16:08.745Z,30.70
2018-12-20T11:18:38.892Z,32.63
2018-12-20T11:21:08.177Z,34.70
2018-12-20T11:23:37.415Z,31.73
2018-12-20T11:26:06.915Z,32.17
2018-12-20T11:28:36.182Z,30.62
2018-12-20T11:31:05.488Z,30.50
2018-12-20T11:33:34.864Z,33.67
2018-12-20T11:36:04.282Z,29.90
2018-12-20T11:38:33.557Z,32.35
2018-12-20T11:41:03.354Z,30.77
2018-12-20T11:43:32.895Z,30.95
2018-12-20T11:46:02.193Z,30.08
2018-12-20T11:48:31.850Z,31.57
2018-12-20T11:51:01.265Z,32.65
2018-12-20T12:00:36.938Z,30.00
2018-12-20T12:03:06.709Z,31.33
2018-12-20T12:05:35.992Z,29.55
2018-12-20T12:08:05.620Z,32.50
2018-12-20T12:10:34.949Z,29.82
2018-12-20T12:13:05.268Z,29.65
2018-12-20T12:15:35.434Z,30.37
2018-12-20T12:18:11.202Z,28.95
2018-12-20T12:20:41.392Z,29.50
2018-12-20T12:23:10.813Z,27.58
2018-12-20T12:25:40.293Z,29.27
2018-12-20T12:28:09.920Z,27.40
2018-12-20T12:30:41.244Z,29.70
2018-12-20T12:33:10.651Z,27.67
2018-12-20T12:35:39.926Z,28.67
2018-12-20T12:38:09.238Z,27.32
2018-12-20T12:40:38.607Z,26.97
2018-12-20T12:43:07.932Z,28.60
2018-12-20T12:45:37.250Z,29.77
2018-12-20T12:48:08.383Z,29.65
2018-12-20T12:50:37.693Z,29.65
2018-12-20T12:53:07.040Z,28.83
2018-12-20T12:55:36.944Z,29.10
2018-12-20T12:58:06.261Z,29.95
2018-12-20T13:00:35.559Z,29.30
2018-12-20T13:03:05.067Z,29.02
2018-12-20T13:05:36.348Z,28.20
2018-12-20T13:08:05.731Z,29.00
2018-12-20T13:10:35.093Z,28.50
2018-12-20T13:13:04.360Z,29.10
2018-12-20T13:15:35.840Z,28.05
2018-12-20T13:18:13.589Z,30.62
2018-12-20T13:20:36.477Z,30.43
2018-12-20T13:23:08.187Z,29.87
2018-12-20T13:25:37.946Z,28.87
2018-12-20T13:28:07.341Z,27.50
2018-12-20T13:30:36.822Z,28.32
2018-12-20T13:33:06.111Z,28.65
2018-12-20T13:35:35.467Z,30.23
2018-12-20T13:38:05.045Z,30.35
2018-12-20T13:40:38.627Z,29.30
2018-12-20T13:43:09.033Z,28.62
2018-12-20T13:45:38.344Z,26.95
2018-12-20T13:48:08.106Z,31.45
2018-12-20T13:50:37.495Z,29.75
2018-12-20T13:53:06.737Z,28.00
2018-12-20T13:55:36.178Z,30.10
2018-12-20T13:58:05.463Z,29.23
2018-12-20T14:00:34.838Z,28.42
2018-12-20T14:03:04.242Z,30.10
2018-12-20T14:05:33.689Z,30.52
2018-12-20T14:08:03.449Z,28.55
2018-12-20T14:10:32.706Z,28.20
2018-12-20T14:13:02.365Z,29.42
2018-12-20T14:15:31.764Z,27.42
2018-12-20T14:18:01.193Z,31.97
2018-12-20T14:20:30.682Z,28.57
2018-12-20T14:23:00.259Z,27.58
2018-12-20T14:25:29.911Z,29.05
2018-12-20T14:27:59.395Z,29.40
2018-12-20T14:30:28.774Z,28.38
2018-12-20T14:32:58.124Z,31.12
2018-12-20T14:35:27.564Z,28.32
2018-12-20T14:37:57.036Z,32.28
2018-12-20T14:40:26.305Z,30.23
2018-12-20T14:42:55.904Z,28.12
2018-12-20T14:45:25.308Z,29.40
2018-12-20T14:47:54.641Z,27.40
2018-12-20T14:50:24.048Z,28.60
2018-12-20T14:52:53.888Z,28.92
2018-12-20T14:55:25.537Z,28.67
2018-12-20T14:57:55.376Z,28.10
2018-12-20T15:00:24.737Z,29.23
2018-12-20T15:02:56.404Z,29.77
2018-12-20T15:05:26.872Z,29.32
2018-12-20T15:07:56.233Z,28.77
2018-12-20T15:10:25.531Z,29.72
2018-12-20T15:12:55.500Z,30.88
2018-12-20T15:15:24.928Z,27.50
2018-12-20T15:17:54.343Z,29.00
2018-12-20T15:20:23.821Z,29.98
2018-12-20T15:22:53.258Z,27.42
2018-12-20T15:25:22.712Z,29.10
2018-12-20T15:27:52.132Z,29.23
2018-12-20T15:30:21.606Z,29.72
2018-12-20T15:32:50.891Z,26.15
2018-12-20T15:35:20.259Z,30.10
2018-12-20T15:37:49.544Z,28.35
2018-12-20T15:40:18.851Z,28.50
2018-12-20T15:42:48.441Z,29.48
2018-12-20T15:45:17.833Z,29.52
2018-12-20T15:47:47.135Z,27.77
2018-12-20T15:50:16.973Z,26.93
2018-12-20T15:52:46.389Z,26.02
2018-12-20T15:55:15.769Z,31.00
2018-12-20T15:57:45.128Z,29.05
2018-12-20T16:00:14.379Z,32.80
2018-12-20T16:02:43.871Z,27.65
2018-12-20T16:05:13.170Z,31.20
2018-12-20T16:07:42.649Z,27.73
2018-12-20T16:10:11.936Z,26.90
2018-12-20T16:12:41.582Z,28.32
2018-12-20T16:15:11.651Z,27.15
2018-12-20T16:17:41.166Z,27.52
2018-12-20T16:20:10.618Z,29.98
2018-12-20T16:22:39.901Z,30.17
2018-12-20T16:25:09.482Z,27.67
2018-12-20T16:27:39.549Z,27.98
2018-12-20T16:30:10.897Z,27.80
2018-12-20T16:32:40.265Z,29.32
2018-12-20T16:35:09.770Z,26.57
2018-12-20T16:37:39.299Z,28.50
2018-12-20T16:40:09.311Z,26.05
2018-12-20T16:42:38.534Z,27.10
2018-12-20T16:45:08.528Z,27.25
2018-12-20T16:47:38.357Z,31.02
2018-12-20T16:50:09.554Z,28.73
2018-12-20T16:52:39.037Z,26.77
2018-12-20T16:55:08.801Z,27.13
2018-12-20T16:57:38.143Z,29.00
2018-12-20T17:00:09.553Z,26.65
2018-12-20T17:02:39.092Z,28.60
2018-12-20T17:05:08.438Z,28.23
2018-12-20T17:07:38.246Z,30.32
2018-12-20T17:10:09.128Z,29.25
2018-12-20T17:12:38.561Z,30.72
2018-12-20T17:15:08.115Z,27.65
2018-12-20T17:17:37.307Z,27.07
2018-12-20T17:20:07.799Z,27.45
2018-12-20T17:22:38.118Z,28.52
2018-12-20T17:25:07.599Z,29.92
2018-12-20T17:27:36.927Z,30.82
2018-12-20T17:30:08.372Z,28.80
2018-12-20T17:32:37.649Z,30.35
2018-12-20T17:35:07.222Z,39.78
2018-12-20T17:37:36.605Z,31.23
2018-12-20T17:40:06.872Z,27.50
2018-12-20T17:42:36.165Z,47.20
2018-12-20T17:45:07.635Z,42.50
2018-12-20T17:47:37.049Z,29.98
2018-12-20T17:50:07.404Z,32.35
2018-12-20T17:52:36.827Z,31.35
2018-12-20T17:55:06.540Z,27.90
2018-12-20T17:57:35.965Z,29.67
2018-12-20T18:00:09.340Z,30.48
2018-12-20T18:02:38.788Z,27.17
2018-12-20T18:05:08.349Z,28.25
2018-12-20T18:07:38.313Z,30.05
2018-12-20T18:10:11.706Z,28.02
2018-12-20T18:12:41.085Z,27.55
2018-12-20T18:15:12.591Z,30.25
2018-12-20T18:17:42.050Z,29.85
2018-12-20T18:20:11.367Z,31.93
2018-12-20T18:22:41.215Z,30.40
2018-12-20T18:25:10.463Z,31.25
2018-12-20T18:27:39.852Z,29.25
2018-12-20T18:30:11.917Z,30.65
2018-12-20T18:32:41.291Z,31.40
2018-12-20T18:35:10.519Z,38.23
2018-12-20T18:37:39.841Z,35.83
2018-12-20T18:40:10.105Z,39.53
2018-12-20T18:42:39.446Z,38.40
2018-12-20T18:45:09.544Z,34.33
2018-12-20T18:47:38.938Z,35.98
2018-12-20T18:50:13.131Z,35.10
2018-12-20T18:52:42.517Z,29.70
2018-12-20T18:55:12.762Z,33.73
2018-12-20T18:57:42.183Z,30.25
2018-12-20T19:00:11.527Z,31.82
2018-12-20T19:02:40.873Z,30.50
2018-12-20T19:05:10.303Z,38.10
2018-12-20T19:07:39.608Z,29.02
2018-12-20T19:10:09.253Z,28.87
2018-12-20T19:12:38.525Z,35.65
2018-12-20T19:15:09.176Z,30.55
2018-12-20T19:17:38.545Z,30.65
2018-12-20T19:20:15.989Z,30.77
2018-12-20T19:22:40.975Z,30.25
2018-12-20T19:25:10.200Z,33.75
2018-12-20T19:27:39.435Z,31.25
2018-12-20T19:30:10.477Z,29.20
2018-12-20T19:32:39.787Z,26.97
2018-12-20T19:35:09.173Z,27.32
2018-12-20T19:37:38.445Z,32.58
2018-12-20T19:40:09.900Z,31.10
2018-12-20T19:42:39.343Z,29.65
2018-12-20T19:45:09.327Z,28.85
2018-12-20T19:47:38.620Z,29.37
2018-12-20T19:50:09.903Z,30.02
2018-12-20T19:52:39.324Z,28.65
2018-12-20T19:55:08.565Z,26.97
2018-12-20T19:57:37.834Z,28.75
2018-12-20T20:00:11.336Z,27.45
2018-12-20T20:02:40.605Z,27.85
2018-12-20T20:05:09.973Z,28.90
2018-12-20T20:07:39.388Z,27.10
2018-12-20T20:10:10.778Z,30.77
2018-12-20T20:12:40.093Z,28.32
2018-12-20T20:15:16.372Z,26.82
2018-12-20T20:17:44.362Z,29.15
2018-12-20T20:20:15.096Z,26.85
2018-12-20T20:22:44.362Z,26.62
2018-12-20T20:25:13.830Z,26.70
2018-12-20T20:27:45.447Z,28.83
2018-12-20T20:30:15.854Z,26.27
2018-12-20T20:32:45.951Z,23.10
2018-12-20T20:35:15.197Z,26.50
2018-12-20T20:37:44.768Z,25.37
2018-12-20T20:40:14.070Z,25.65
2018-12-20T20:42:43.348Z,37.10
2018-12-20T20:45:12.982Z,25.50
2018-12-20T20:47:43.340Z,22.60
2018-12-20T20:50:12.715Z,24.65
2018-12-20T20:52:42.068Z,24.10
2018-12-20T20:55:11.719Z,21.70
2018-12-20T20:57:40.955Z,22.67
2018-12-20T21:00:12.564Z,20.43
2018-12-20T21:02:42.063Z,20.12
2018-12-20T21:05:12.334Z,22.13
2018-12-20T21:07:41.864Z,21.50
2018-12-20T21:10:12.220Z,24.15
2018-12-20T21:12:41.555Z,21.30
2018-12-20T21:15:12.151Z,21.55
2018-12-20T21:17:42.618Z,22.07
2018-12-20T21:20:13.627Z,46.08
2018-12-20T21:22:42.999Z,31.85
2018-12-20T21:25:12.347Z,31.37
2018-12-20T21:27:41.809Z,33.48
2018-12-20T21:30:11.094Z,23.18
2018-12-20T21:32:40.333Z,20.27
2018-12-20T21:35:09.790Z,21.20
2018-12-20T21:37:39.205Z,20.37
2018-12-20T21:40:08.680Z,19.65
2018-12-20T21:42:38.117Z,19.32
2018-12-20T21:45:09.297Z,21.33
2018-12-20T21:47:39.767Z,21.42
2018-12-20T21:50:11.073Z,20.95
2018-12-20T21:52:40.371Z,21.35
2018-12-20T21:55:10.454Z,20.70
2018-12-20T21:57:40.861Z,20.00
2018-12-20T22:00:11.071Z,20.92
2018-12-20T22:02:40.303Z,30.37
2018-12-20T22:05:09.728Z,22.22
2018-12-20T22:07:39.414Z,34.05
2018-12-20T22:10:09.158Z,21.23
2018-12-20T22:12:39.555Z,23.30
2018-12-20T22:15:09.017Z,21.35
2018-12-20T22:17:38.429Z,21.50
2018-12-20T22:20:08.088Z,21.75
2018-12-20T22:22:37.423Z,23.50
2018-12-20T22:25:07.760Z,20.72
2018-12-20T22:27:37.180Z,24.47
2018-12-20T22:30:08.717Z,25.50
2018-12-20T22:32:38.053Z,25.40
2018-12-20T22:35:07.689Z,22.93
2018-12-20T22:37:37.233Z,24.30
2018-12-20T22:40:09.009Z,22.52
2018-12-20T22:42:38.437Z,21.82
2018-12-20T22:45:09.128Z,22.13
2018-12-20T22:47:38.605Z,22.07
2018-12-20T22:50:10.057Z,23.70
2018-12-20T22:52:39.489Z,22.07
2018-12-20T22:55:09.515Z,21.20
2018-12-20T22:57:38.816Z,22.65
2018-12-20T23:00:10.110Z,19.82
2018-12-20T23:02:39.621Z,18.30
2018-12-20T23:05:08.934Z,21.20
2018-12-20T23:07:38.312Z,20.60
2018-12-20T23:10:08.210Z,19.50
2018-12-20T23:12:37.499Z,20.90
2018-12-20T23:15:07.010Z,20.30
2018-12-20T23:17:36.840Z,19.60
2018-12-20T23:20:07.318Z,18.77
2018-12-20T23:22:36.584Z,20.25
2018-12-20T23:25:07.144Z,18.02
2018-12-20T23:27:36.541Z,18.35
2018-12-20T23:30:06.005Z,17.55
2018-12-20T23:32:35.357Z,18.82
2018-12-20T23:35:04.995Z,19.07
2018-12-20T23:37:34.314Z,18.37
2018-12-20T23:40:04.298Z,18.98
2018-12-20T23:42:34.103Z,20.45
2018-12-20T23:45:08.966Z,20.62
2018-12-20T23:47:38.576Z,19.23
2018-12-20T23:50:07.985Z,20.52
2018-12-20T23:52:38.376Z,20.88
2018-12-20T23:55:08.020Z,20.45
2018-12-20T23:57:37.418Z,19.73
